aviador You're here:

LQBK Decoded Metar

BANJA LUKA in BOSNIA-HERCEGOVINA
Report Time2017-08-19 20:00:00
UTC Time2017-08-19 20:28:54
Flight Rules vfr VFR
Wind280° at 05 kt
W.Decomp.*RWY 35: 1.6 kt HW 4.7 kt LCW
W.Rank280° ranks 26
Current wind is above 280° avg. (3.9)
Visibility9999 m
Phenomena:N/A
Clouds:Few 043 Hf
Expected CloudBase > 4,000 ft AGL from Temp-Dew spread
CeilingNone
Temp23°C (ISA +9)
Dew Point13°C (53% RH)
AAT22.1°C
QNH1015 hPa
Density Alt1,558 ft
Elevation400 ft
Report Wrong Elevation
Raw Report
LQBK 192000Z 28005KT 9999 FEW043 23/13 Q1015 NOSIG=

Extra information for LQBK:More info

Metar Taf Metar & Taf Last 4 Metars F.Rules Stats Wind Profile Meteogram Temp Stats Airport Information Weather charts Add Link Nearby VenuesMetar ALERT Operation Metar Decoded Social comments